createdAt,value
2023-03-11T00:01:01.941Z,97572.09
2023-03-11T00:04:05.957Z,97569.81
2023-03-11T00:07:11.703Z,97567.58
2023-03-11T00:10:19.160Z,97563.96
2023-03-11T00:13:23.528Z,97560.02
2023-03-11T00:16:27.547Z,97558.10
2023-03-11T00:19:31.852Z,97556.67
2023-03-11T00:22:35.881Z,97559.31
2023-03-11T00:25:40.670Z,97554.30
2023-03-11T00:28:44.585Z,97553.27
2023-03-11T00:31:48.513Z,97555.03
2023-03-11T00:34:52.451Z,97549.48
2023-03-11T00:37:59.727Z,97545.12
2023-03-11T00:41:03.818Z,97539.39
2023-03-11T00:44:09.003Z,97534.73
2023-03-11T00:47:13.128Z,97532.10
2023-03-11T00:50:20.720Z,97530.36
2023-03-11T00:53:24.838Z,97524.41
2023-03-11T00:56:29.066Z,97521.48
2023-03-11T00:59:35.432Z,97521.94
2023-03-11T01:02:40.054Z,97516.70
2023-03-11T01:05:44.079Z,97518.29
2023-03-11T01:08:48.098Z,97520.69
2023-03-11T01:11:52.084Z,97514.33
2023-03-11T01:14:56.094Z,97514.36
2023-03-11T01:18:00.873Z,97507.78
2023-03-11T01:21:05.382Z,97506.81
2023-03-11T01:24:09.818Z,97503.32
2023-03-11T01:27:15.552Z,97503.79
2023-03-11T01:30:22.459Z,97500.65
2023-03-11T01:33:27.766Z,97495.70
2023-03-11T01:36:31.735Z,97500.45
2023-03-11T01:39:36.033Z,97500.08
2023-03-11T01:42:40.095Z,97502.13
2023-03-11T01:45:50.515Z,97500.14
2023-03-11T01:49:02.597Z,97494.98
2023-03-11T01:52:09.850Z,97489.13
2023-03-11T01:55:20.848Z,97491.73
2023-03-11T01:58:28.297Z,97490.04
2023-03-11T02:01:33.209Z,97487.58
2023-03-11T02:04:38.986Z,97489.07
2023-03-11T02:07:42.993Z,97482.11
2023-03-11T02:10:49.626Z,97476.91
2023-03-11T02:13:58.997Z,97477.70
2023-03-11T02:17:04.019Z,97475.30
2023-03-11T02:20:39.921Z,97470.52
2023-03-11T02:24:02.249Z,97468.50
2023-03-11T02:27:09.461Z,97474.86
2023-03-11T02:30:15.626Z,97466.91
2023-03-11T02:33:21.684Z,97462.82
2023-03-11T02:36:38.300Z,97462.30
2023-03-11T02:39:45.710Z,97461.85
2023-03-11T02:42:54.932Z,97460.61
2023-03-11T02:45:59.943Z,97462.58
2023-03-11T02:49:05.391Z,97463.73
2023-03-11T02:52:10.623Z,97464.18
2023-03-11T02:55:16.313Z,97461.08
2023-03-11T02:58:20.445Z,97458.30
2023-03-11T03:01:24.757Z,97457.52
2023-03-11T03:04:29.147Z,97458.25
2023-03-11T03:07:34.130Z,97461.10
2023-03-11T03:10:38.749Z,97462.39
2023-03-11T03:13:42.869Z,97453.70
2023-03-11T03:16:46.888Z,97451.52
2023-03-11T03:19:51.103Z,97452.35
2023-03-11T03:22:55.637Z,97451.85
2023-03-11T03:26:05.684Z,97451.06
2023-03-11T03:29:10.713Z,97449.79
2023-03-11T03:32:14.871Z,97449.81
2023-03-11T03:35:19.269Z,97452.48
2023-03-11T03:38:36.702Z,97459.51
2023-03-11T03:41:41.233Z,97460.72
2023-03-11T03:44:45.505Z,97462.31
2023-03-11T03:47:49.573Z,97456.25
2023-03-11T03:50:54.606Z,97451.84
2023-03-11T03:53:58.548Z,97444.95
2023-03-11T03:57:03.131Z,97438.82
2023-03-11T04:00:12.099Z,97435.69
2023-03-11T04:03:18.711Z,97430.75
2023-03-11T04:06:28.485Z,97426.71
2023-03-11T04:09:40.127Z,97420.56
2023-03-11T04:12:44.189Z,97417.41
2023-03-11T04:15:49.368Z,97421.15
2023-03-11T04:18:53.696Z,97424.93
2023-03-11T04:21:58.379Z,97425.86
2023-03-11T04:25:03.632Z,97423.04
2023-03-11T04:28:08.706Z,97423.39
2023-03-11T04:31:13.354Z,97418.66
2023-03-11T04:34:17.489Z,97415.60
2023-03-11T04:37:21.670Z,97426.26
2023-03-11T04:40:25.939Z,97429.70
2023-03-11T04:43:30.917Z,97427.87
2023-03-11T04:46:35.003Z,97432.41
2023-03-11T04:49:39.602Z,97430.65
2023-03-11T04:52:44.916Z,97429.24
2023-03-11T04:55:49.039Z,97431.95
2023-03-11T04:58:53.158Z,97432.40
2023-03-11T05:01:58.168Z,97435.50
2023-03-11T05:05:02.223Z,97438.42
2023-03-11T05:08:06.540Z,97440.57
2023-03-11T05:11:11.353Z,97442.02
2023-03-11T05:14:15.590Z,97441.48
2023-03-11T05:17:20.020Z,97445.80
2023-03-11T05:20:24.997Z,97442.08
2023-03-11T05:23:29.668Z,97437.45
2023-03-11T05:26:34.115Z,97436.61
2023-03-11T05:29:39.222Z,97432.69
2023-03-11T05:32:44.937Z,97427.47
2023-03-11T05:35:52.015Z,97425.68
2023-03-11T05:38:56.642Z,97423.34
2023-03-11T05:42:01.162Z,97419.75
2023-03-11T05:45:06.410Z,97415.83
2023-03-11T05:48:11.130Z,97415.39
2023-03-11T05:51:15.412Z,97417.22
2023-03-11T05:54:21.128Z,97417.77
2023-03-11T05:57:27.184Z,97422.80
2023-03-11T06:00:32.009Z,97427.56
2023-03-11T06:03:38.955Z,97429.30
2023-03-11T06:06:43.316Z,97430.92
2023-03-11T06:09:50.511Z,97433.02
2023-03-11T06:12:55.341Z,97434.04
2023-03-11T06:16:13.021Z,97440.61
2023-03-11T06:19:17.301Z,97444.56
2023-03-11T06:22:24.797Z,97444.13
2023-03-11T06:25:28.792Z,97450.15
2023-03-11T06:28:33.574Z,97450.34
2023-03-11T06:31:39.621Z,97452.85
2023-03-11T06:34:50.562Z,97453.93
2023-03-11T06:37:54.711Z,97455.94
2023-03-11T06:41:00.684Z,97456.78
2023-03-11T06:44:05.095Z,97457.35
2023-03-11T06:47:10.426Z,97458.76
2023-03-11T06:50:14.586Z,97461.83
2023-03-11T06:53:18.538Z,97461.51
2023-03-11T06:56:24.225Z,97466.14
2023-03-11T06:59:41.054Z,97466.37
2023-03-11T07:02:45.788Z,97468.36
2023-03-11T07:05:51.939Z,97468.04
2023-03-11T07:08:56.782Z,97470.11
2023-03-11T07:12:00.855Z,97475.29
2023-03-11T07:15:14.163Z,97481.05
2023-03-11T07:18:18.660Z,97481.73
2023-03-11T07:21:23.676Z,97486.85
2023-03-11T07:24:27.724Z,97488.75
2023-03-11T07:27:32.452Z,97496.02
2023-03-11T07:30:39.199Z,97498.11
2023-03-11T07:33:43.221Z,97499.05
2023-03-11T07:36:47.258Z,97500.34
2023-03-11T07:39:51.235Z,97504.60
2023-03-11T07:42:55.194Z,97501.22
2023-03-11T07:46:22.687Z,97503.39
2023-03-11T07:49:26.731Z,97509.77
2023-03-11T07:52:33.418Z,97514.46
2023-03-11T07:55:37.362Z,97516.30
2023-03-11T07:58:43.570Z,97518.64
2023-03-11T08:01:50.671Z,97516.23
2023-03-11T08:04:56.338Z,97517.40
2023-03-11T08:08:00.288Z,97517.29
2023-03-11T08:11:04.625Z,97522.08
2023-03-11T08:14:09.021Z,97524.67
2023-03-11T08:17:13.179Z,97526.71
2023-03-11T08:20:17.585Z,97531.31
2023-03-11T08:23:21.505Z,97533.58
2023-03-11T08:26:25.677Z,97531.70
2023-03-11T08:29:29.626Z,97533.53
2023-03-11T08:32:33.928Z,97542.61
2023-03-11T08:35:38.104Z,97544.72
2023-03-11T08:38:42.514Z,97546.82
2023-03-11T08:41:46.507Z,97554.40
2023-03-11T08:44:50.726Z,97559.31
2023-03-11T08:47:54.741Z,97564.14
2023-03-11T08:50:59.275Z,97563.55
2023-03-11T08:54:03.694Z,97567.86
2023-03-11T08:57:07.715Z,97570.98
2023-03-11T09:00:13.433Z,97576.61
2023-03-11T09:03:18.096Z,97582.97
2023-03-11T09:06:22.180Z,97583.13
2023-03-11T09:09:26.229Z,97589.65
2023-03-11T09:12:30.657Z,97588.89
2023-03-11T09:15:34.976Z,97593.39
2023-03-11T09:18:38.998Z,97596.88
2023-03-11T09:21:42.946Z,97600.13
2023-03-11T09:24:46.918Z,97609.23
2023-03-11T09:27:50.937Z,97616.60
2023-03-11T09:30:55.064Z,97613.35
2023-03-11T09:33:59.077Z,97622.83
2023-03-11T09:37:03.019Z,97619.73
2023-03-11T09:40:08.390Z,97626.42
2023-03-11T09:43:21.260Z,97628.48
2023-03-11T09:46:37.329Z,97624.70
2023-03-11T09:50:07.846Z,97628.42
2023-03-11T09:53:35.052Z,97630.80
2023-03-11T09:56:44.034Z,97630.70
2023-03-11T09:59:49.354Z,97636.06
2023-03-11T10:02:53.855Z,97646.45
2023-03-11T10:06:13.542Z,97653.43
2023-03-11T10:09:40.727Z,97670.16
2023-03-11T10:12:50.463Z,97679.56
2023-03-11T10:15:57.185Z,97693.91
2023-03-11T10:19:23.492Z,97703.69
2023-03-11T10:22:36.376Z,97720.66
2023-03-11T10:25:56.791Z,97730.91
2023-03-11T10:29:28.968Z,97735.60
2023-03-11T10:32:50.014Z,97744.96
2023-03-11T10:35:56.894Z,97755.22
2023-03-11T10:39:02.407Z,97764.19
2023-03-11T10:42:13.722Z,97772.98
2023-03-11T10:45:20.589Z,97783.80
2023-03-11T10:48:26.567Z,97795.23
2023-03-11T10:51:35.075Z,97797.39
2023-03-11T10:54:46.115Z,97804.17
2023-03-11T10:57:50.151Z,97814.34
2023-03-11T11:01:21.860Z,97814.10
2023-03-11T11:04:35.465Z,97822.77
2023-03-11T11:07:42.463Z,97831.73
2023-03-11T11:10:58.658Z,97838.94
2023-03-11T11:14:02.708Z,97849.02
2023-03-11T11:17:14.138Z,97856.94
2023-03-11T11:20:19.877Z,97857.26
2023-03-11T11:23:33.073Z,97869.80
2023-03-11T11:26:37.156Z,97872.66
2023-03-11T11:29:41.754Z,97885.39
2023-03-11T11:32:45.873Z,97891.21
2023-03-11T11:35:54.210Z,97896.96
2023-03-11T11:39:03.375Z,97910.13
2023-03-11T11:42:12.510Z,97919.90
2023-03-11T11:45:37.942Z,97932.60
2023-03-11T11:49:00.987Z,97946.03
2023-03-11T11:52:22.814Z,97964.52
2023-03-11T11:55:30.652Z,97977.02
2023-03-11T11:58:35.627Z,97981.00
2023-03-11T12:01:50.008Z,97986.29
2023-03-11T12:05:12.632Z,97996.77
2023-03-11T12:08:28.642Z,98004.26
2023-03-11T12:11:46.413Z,98009.84
2023-03-11T12:15:14.801Z,98020.71
2023-03-11T12:18:26.827Z,98035.70
2023-03-11T12:21:39.622Z,98040.73
2023-03-11T12:24:49.257Z,98044.48
2023-03-11T12:28:17.940Z,98051.41
2023-03-11T12:31:24.910Z,98062.73
2023-03-11T12:34:31.435Z,98070.98
2023-03-11T12:37:35.504Z,98081.79
2023-03-11T12:40:42.169Z,98088.95
2023-03-11T12:43:47.311Z,98095.39
2023-03-11T12:46:54.150Z,98106.44
2023-03-11T12:50:35.936Z,98109.46
2023-03-11T12:53:48.613Z,98118.17
2023-03-11T12:56:58.521Z,98132.86
2023-03-11T13:00:30.803Z,98143.39
2023-03-11T13:03:46.886Z,98150.19
2023-03-11T13:07:12.918Z,98161.27
2023-03-11T13:10:21.463Z,98171.66
2023-03-11T13:13:25.480Z,98185.35
2023-03-11T13:16:29.409Z,98183.54
2023-03-11T13:19:36.277Z,98205.16
2023-03-11T13:22:45.018Z,98211.31
2023-03-11T13:25:51.542Z,98213.73
2023-03-11T13:29:21.526Z,98223.16
2023-03-11T13:33:12.208Z,98239.23
2023-03-11T13:36:34.866Z,98250.48
2023-03-11T13:39:45.336Z,98264.91
2023-03-11T13:42:51.803Z,98270.79
2023-03-11T13:46:07.473Z,98281.61
2023-03-11T13:49:40.249Z,98286.29
2023-03-11T13:52:49.217Z,98307.55
2023-03-11T13:55:53.238Z,98313.60
2023-03-11T13:59:27.795Z,98322.71
2023-03-11T14:02:31.985Z,98337.19
2023-03-11T14:05:38.112Z,98338.38
2023-03-11T14:08:42.972Z,98348.82
2023-03-11T14:11:49.037Z,98360.52
2023-03-11T14:15:04.345Z,98373.01
2023-03-11T14:18:37.008Z,98382.99
2023-03-11T14:21:45.425Z,98395.41
2023-03-11T14:24:49.653Z,98403.30
2023-03-11T14:28:02.665Z,98412.23
2023-03-11T14:31:06.892Z,98426.02
2023-03-11T14:34:10.927Z,98429.83
2023-03-11T14:37:33.010Z,98439.42
2023-03-11T14:40:42.103Z,98451.19
2023-03-11T14:43:50.407Z,98457.33
2023-03-11T14:47:18.977Z,98462.61
2023-03-11T14:50:25.797Z,98472.14
2023-03-11T14:53:35.593Z,98487.66
2023-03-11T14:56:44.984Z,98492.80
2023-03-11T14:59:51.238Z,98493.97
2023-03-11T15:03:17.089Z,98508.80
2023-03-11T15:06:26.399Z,98515.03
2023-03-11T15:09:31.739Z,98519.40
2023-03-11T15:12:46.673Z,98522.17
2023-03-11T15:16:01.060Z,98527.82
2023-03-11T15:19:30.326Z,98533.78
2023-03-11T15:22:38.052Z,98540.70
2023-03-11T15:25:50.142Z,98550.27
2023-03-11T15:29:06.602Z,98555.59
2023-03-11T15:32:29.250Z,98569.25
2023-03-11T15:35:45.174Z,98571.41
2023-03-11T15:39:07.097Z,98585.94
2023-03-11T15:42:29.328Z,98583.84
2023-03-11T15:45:33.268Z,98591.27
2023-03-11T15:48:37.216Z,98596.26
2023-03-11T15:51:41.193Z,98603.48
2023-03-11T15:54:55.207Z,98613.29
2023-03-11T15:58:08.050Z,98618.50
2023-03-11T16:01:11.980Z,98630.58
2023-03-11T16:04:18.479Z,98641.64
2023-03-11T16:07:36.809Z,98649.44
2023-03-11T16:10:43.113Z,98658.14
2023-03-11T16:13:47.124Z,98663.02
2023-03-11T16:16:51.068Z,98665.95
2023-03-11T16:19:54.978Z,98675.91
2023-03-11T16:23:01.394Z,98689.82
2023-03-11T16:26:05.990Z,98691.54
2023-03-11T16:29:19.090Z,98694.77
2023-03-11T16:32:23.925Z,98708.23
2023-03-11T16:35:28.015Z,98721.34
2023-03-11T16:38:42.753Z,98727.41
2023-03-11T16:41:46.726Z,98732.61
2023-03-11T16:44:50.991Z,98740.21
2023-03-11T16:47:54.995Z,98752.61
2023-03-11T16:50:59.125Z,98755.52
2023-03-11T16:54:03.131Z,98765.80
2023-03-11T16:57:07.147Z,98773.46
2023-03-11T17:00:13.127Z,98784.73
2023-03-11T17:03:21.607Z,98792.06
2023-03-11T17:06:25.937Z,98799.69
2023-03-11T17:09:29.853Z,98812.55
2023-03-11T17:12:33.849Z,98815.48
2023-03-11T17:15:38.790Z,98824.80
2023-03-11T17:18:42.678Z,98823.14
2023-03-11T17:21:46.858Z,98831.09
2023-03-11T17:24:50.908Z,98837.33
2023-03-11T17:27:55.091Z,98846.14
2023-03-11T17:31:00.313Z,98848.09
2023-03-11T17:34:04.352Z,98853.76
2023-03-11T17:37:09.085Z,98856.21
2023-03-11T17:40:13.098Z,98856.76
2023-03-11T17:43:17.078Z,98859.64
2023-03-11T17:46:22.592Z,98868.79
2023-03-11T17:49:26.843Z,98872.00
2023-03-11T17:52:30.818Z,98875.83
2023-03-11T17:55:38.292Z,98883.88
2023-03-11T17:58:42.599Z,98894.14
2023-03-11T18:01:46.654Z,98898.16
2023-03-11T18:04:53.982Z,98907.27
2023-03-11T18:07:58.821Z,98910.92
2023-03-11T18:11:05.892Z,98910.95
2023-03-11T18:14:10.557Z,98918.46
2023-03-11T18:17:15.821Z,98923.38
2023-03-11T18:20:20.860Z,98936.56
2023-03-11T18:23:24.875Z,98940.34
2023-03-11T18:26:30.054Z,98942.98
2023-03-11T18:29:34.031Z,98953.73
2023-03-11T18:32:38.044Z,98960.33
2023-03-11T18:35:42.380Z,98965.52
2023-03-11T18:38:47.637Z,98974.40
2023-03-11T18:41:51.557Z,98979.66
2023-03-11T18:44:55.535Z,98981.20
2023-03-11T18:47:59.562Z,98992.63
2023-03-11T18:51:03.943Z,98995.12
2023-03-11T18:54:08.602Z,98999.77
2023-03-11T18:57:12.654Z,99003.80
2023-03-11T19:00:22.488Z,99011.90
2023-03-11T19:03:26.399Z,99017.48
2023-03-11T19:06:30.522Z,99018.98
2023-03-11T19:09:34.740Z,99027.08
2023-03-11T19:12:40.085Z,99029.86
2023-03-11T19:15:43.984Z,99036.91
2023-03-11T19:18:48.541Z,99046.61
2023-03-11T19:21:52.546Z,99055.73
2023-03-11T19:24:56.450Z,99057.42
2023-03-11T19:28:01.045Z,99065.05
2023-03-11T19:31:05.831Z,99067.83
2023-03-11T19:34:10.050Z,99075.42
2023-03-11T19:37:14.264Z,99081.39
2023-03-11T19:40:18.485Z,99086.87
2023-03-11T19:43:23.887Z,99090.58
2023-03-11T19:46:29.519Z,99098.40
2023-03-11T19:49:33.822Z,99099.60
2023-03-11T19:52:37.900Z,99102.28
2023-03-11T19:55:46.473Z,99113.90
2023-03-11T19:58:50.481Z,99115.58
2023-03-11T20:01:54.484Z,99122.54
2023-03-11T20:04:58.539Z,99122.61
2023-03-11T20:08:03.997Z,99129.16
2023-03-11T20:11:08.298Z,99134.76
2023-03-11T20:14:13.260Z,99135.95
2023-03-11T20:17:17.627Z,99135.90
2023-03-11T20:20:21.859Z,99142.08
2023-03-11T20:23:26.021Z,99143.49
2023-03-11T20:26:30.133Z,99148.10
2023-03-11T20:29:34.129Z,99148.42
2023-03-11T20:32:38.350Z,99158.48
2023-03-11T20:35:42.504Z,99163.14
2023-03-11T20:38:51.519Z,99162.06
2023-03-11T20:41:55.590Z,99162.82
2023-03-11T20:44:59.626Z,99165.59
2023-03-11T20:48:03.847Z,99167.38
2023-03-11T20:51:12.103Z,99173.45
2023-03-11T20:54:16.878Z,99174.70
2023-03-11T20:57:20.887Z,99178.30
2023-03-11T21:00:24.947Z,99177.86
2023-03-11T21:03:29.099Z,99177.42
2023-03-11T21:06:37.747Z,99180.88
2023-03-11T21:09:42.102Z,99182.57
2023-03-11T21:12:46.209Z,99189.68
2023-03-11T21:15:53.858Z,99192.61
2023-03-11T21:18:57.977Z,99200.36
2023-03-11T21:22:02.052Z,99197.70
2023-03-11T21:25:08.643Z,99199.29
2023-03-11T21:28:14.062Z,99199.98
2023-03-11T21:31:26.492Z,99207.33
2023-03-11T21:34:31.898Z,99210.77
2023-03-11T21:37:36.017Z,99207.85
2023-03-11T21:40:40.211Z,99209.20
2023-03-11T21:43:44.606Z,99207.85
2023-03-11T21:46:48.727Z,99213.23
2023-03-11T21:49:52.715Z,99210.13
2023-03-11T21:52:56.952Z,99218.68
2023-03-11T21:56:03.789Z,99222.64
2023-03-11T21:59:08.581Z,99224.15
2023-03-11T22:02:17.269Z,99230.40
2023-03-11T22:05:21.404Z,99224.47
2023-03-11T22:08:27.122Z,99227.25
2023-03-11T22:11:31.614Z,99228.23
2023-03-11T22:14:35.931Z,99225.39
2023-03-11T22:17:40.191Z,99230.77
2023-03-11T22:20:44.703Z,99235.29
2023-03-11T22:23:49.238Z,99240.66
2023-03-11T22:26:53.286Z,99244.20
2023-03-11T22:29:57.304Z,99246.14
2023-03-11T22:33:01.228Z,99251.84
2023-03-11T22:36:07.702Z,99249.39
2023-03-11T22:39:11.822Z,99250.54
2023-03-11T22:42:15.809Z,99253.74
2023-03-11T22:45:22.305Z,99252.93
2023-03-11T22:48:26.331Z,99260.00
2023-03-11T22:51:30.336Z,99264.40
2023-03-11T22:54:34.410Z,99268.47
2023-03-11T22:57:39.115Z,99271.73
2023-03-11T23:00:44.248Z,99275.63
2023-03-11T23:03:48.444Z,99276.83
2023-03-11T23:06:54.619Z,99276.88
2023-03-11T23:09:58.623Z,99279.39
2023-03-11T23:13:02.663Z,99275.64
2023-03-11T23:16:26.307Z,99278.34
2023-03-11T23:19:30.437Z,99280.19
2023-03-11T23:22:39.536Z,99284.73
2023-03-11T23:25:43.508Z,99287.50
2023-03-11T23:28:49.344Z,99291.14
2023-03-11T23:31:53.247Z,99290.00
2023-03-11T23:34:57.153Z,99288.87
2023-03-11T23:38:01.280Z,99290.59
2023-03-11T23:41:09.873Z,99293.04
2023-03-11T23:44:14.441Z,99293.10
2023-03-11T23:47:18.558Z,99298.10
2023-03-11T23:50:22.573Z,99302.53
2023-03-11T23:53:27.407Z,99303.02
2023-03-11T23:56:31.372Z,99304.11
2023-03-11T23:59:35.841Z,99305.67
